Time;durP1;ratioP1;P1;durP2;ratioP2;P2;SDS_P1;SDS_P2;PMS_P1;PMS_P2;Temp;Humidity;BMP_temperature;BMP_pressure;BME280_temperature;BME280_humidity;BME280_pressure;Samples;Min_cycle;Max_cycle;Signal;HPM_P1;HPM_P2
2023/12/25 00:01:12;;;;;;;16.45;3.08;;;10.60;99.90;;;;;;5053584;28;20047;-17
2023/12/25 00:03:38;;;;;;;15.98;3.28;;;10.70;99.90;;;;;;5053617;28;20041;-17
2023/12/25 00:06:04;;;;;;;6.65;1.42;;;10.60;99.90;;;;;;5052364;28;20049;-17
2023/12/25 00:08:30;;;;;;;9.57;2.28;;;10.60;99.90;;;;;;5053405;28;20044;-17
2023/12/25 00:10:55;;;;;;;18.40;3.45;;;10.60;99.90;;;;;;5052315;28;20076;-17
2023/12/25 00:13:21;;;;;;;25.63;3.38;;;10.70;99.90;;;;;;5056198;28;20088;-17
2023/12/25 00:15:47;;;;;;;9.95;1.98;;;10.60;99.90;;;;;;5057586;28;20045;-17
2023/12/25 00:18:13;;;;;;;17.40;3.25;;;10.60;99.90;;;;;;5057596;28;20099;-17
2023/12/25 00:20:41;;;;;;;13.98;2.40;;;10.60;99.90;;;;;;5057528;28;20438;-17
2023/12/25 00:23:07;;;;;;;5.93;1.60;;;10.70;99.90;;;;;;5057456;28;20398;-17
2023/12/25 00:25:32;;;;;;;16.77;2.17;;;10.70;99.90;;;;;;5057144;28;20053;-17
2023/12/25 00:27:58;;;;;;;15.50;2.38;;;10.70;99.90;;;;;;5057279;28;20095;-17
2023/12/25 00:30:24;;;;;;;10.50;2.20;;;10.70;99.90;;;;;;5039391;28;20045;-17
2023/12/25 00:32:50;;;;;;;7.75;1.90;;;10.70;99.90;;;;;;5057256;28;20102;-17
2023/12/25 00:35:16;;;;;;;17.83;3.10;;;10.70;99.90;;;;;;5058076;28;20128;-17
2023/12/25 00:37:41;;;;;;;14.15;2.42;;;10.70;99.90;;;;;;5056005;28;20040;-17
2023/12/25 00:40:08;;;;;;;14.65;2.20;;;10.60;99.90;;;;;;5057430;28;20049;-17
2023/12/25 00:42:33;;;;;;;17.08;2.38;;;10.60;99.90;;;;;;5055867;28;20049;-17
2023/12/25 00:44:59;;;;;;;9.75;1.77;;;10.70;99.90;;;;;;5057037;28;20136;-17
2023/12/25 00:47:25;;;;;;;14.35;2.20;;;10.70;99.90;;;;;;5057454;28;20106;-17
2023/12/25 00:49:51;;;;;;;15.50;3.35;;;10.60;99.90;;;;;;5057017;28;20052;-17
2023/12/25 00:52:19;;;;;;;8.38;1.25;;;10.50;99.90;;;;;;5056685;28;20538;-17
2023/12/25 00:54:45;;;;;;;8.85;1.92;;;10.60;99.90;;;;;;5055941;28;20111;-17
2023/12/25 00:57:11;;;;;;;11.68;1.45;;;10.50;99.90;;;;;;5056201;28;20044;-17
2023/12/25 00:59:37;;;;;;;16.83;1.88;;;10.50;99.90;;;;;;5056675;28;20057;-17
2023/12/25 01:02:03;;;;;;;11.95;1.50;;;10.50;99.90;;;;;;5056773;28;20497;-17
2023/12/25 01:04:29;;;;;;;7.93;1.80;;;10.60;99.90;;;;;;5055525;28;20048;-17
2023/12/25 01:06:54;;;;;;;9.02;1.60;;;10.50;99.90;;;;;;5056670;28;20083;-17
2023/12/25 01:09:21;;;;;;;12.13;2.60;;;10.40;99.90;;;;;;5039568;28;20166;-17
2023/12/25 01:11:46;;;;;;;12.13;2.10;;;10.40;99.90;;;;;;5056595;28;20375;-17
2023/12/25 01:14:12;;;;;;;10.68;1.77;;;10.50;99.90;;;;;;5039688;28;20057;-17
2023/12/25 01:16:38;;;;;;;11.07;1.50;;;10.50;99.90;;;;;;5055410;28;20538;-17
2023/12/25 01:19:04;;;;;;;7.78;1.40;;;10.30;99.90;;;;;;5056496;28;20099;-17
2023/12/25 01:21:32;;;;;;;7.00;1.25;;;10.50;99.90;;;;;;5055948;28;20383;-17
2023/12/25 01:23:58;;;;;;;13.10;1.45;;;10.50;99.90;;;;;;5056111;28;20048;-17
2023/12/25 01:26:24;;;;;;;7.70;1.77;;;10.40;99.90;;;;;;5056250;28;20114;-17
2023/12/25 01:28:50;;;;;;;7.25;1.35;;;10.50;99.90;;;;;;5054926;28;20060;-17
2023/12/25 01:31:17;;;;;;;9.88;2.38;;;10.40;99.90;;;;;;5055080;28;20103;-17
2023/12/25 01:33:43;;;;;;;11.15;1.67;;;10.30;99.90;;;;;;5056150;28;20475;-17
2023/12/25 01:36:08;;;;;;;11.68;2.17;;;10.20;99.90;;;;;;5056637;28;20055;-17
2023/12/25 01:38:34;;;;;;;9.63;1.35;;;10.20;99.90;;;;;;5056078;28;20190;-17
2023/12/25 01:41:00;;;;;;;5.38;1.83;;;10.20;99.90;;;;;;5038328;28;20048;-17
2023/12/25 01:43:26;;;;;;;9.80;1.75;;;10.20;99.90;;;;;;5056532;28;20049;-17
2023/12/25 01:45:52;;;;;;;8.75;1.85;;;10.10;99.90;;;;;;5055949;28;20048;-17
2023/12/25 01:48:17;;;;;;;9.68;2.00;;;10.10;99.90;;;;;;5054716;28;20049;-17
2023/12/25 01:50:43;;;;;;;7.90;1.98;;;10.20;99.90;;;;;;5055877;28;20067;-17
2023/12/25 01:53:09;;;;;;;5.38;1.40;;;10.20;99.90;;;;;;5021837;28;20045;-17
2023/12/25 01:55:36;;;;;;;14.80;2.45;;;10.20;99.90;;;;;;5055118;28;20048;-17
2023/12/25 01:58:02;;;;;;;10.20;2.13;;;10.20;99.90;;;;;;5054748;28;20063;-17
2023/12/25 02:00:28;;;;;;;10.30;1.40;;;10.20;99.90;;;;;;5054708;28;20041;-17
2023/12/25 02:02:53;;;;;;;11.88;1.20;;;10.10;99.90;;;;;;5054454;28;20049;-18
2023/12/25 02:05:19;;;;;;;6.97;1.30;;;10.10;99.90;;;;;;5056422;28;20160;-17
2023/12/25 02:07:46;;;;;;;13.50;2.83;;;10.00;99.90;;;;;;5055459;28;20471;-17
2023/12/25 02:10:26;;;;;;;8.07;1.60;;;10.00;99.90;;;;;;5055498;28;20080;-17
2023/12/25 02:12:52;;;;;;;8.52;2.05;;;10.10;99.90;;;;;;5054373;28;20493;-17
2023/12/25 02:15:18;;;;;;;9.27;2.25;;;10.00;99.90;;;;;;5054158;28;20049;-17
2023/12/25 02:17:45;;;;;;;9.20;1.83;;;10.10;99.90;;;;;;5055396;28;20392;-17
2023/12/25 02:20:12;;;;;;;7.25;1.50;;;10.10;99.90;;;;;;5054418;28;20144;-17
2023/12/25 02:22:39;;;;;;;11.40;2.00;;;10.10;99.90;;;;;;5055226;28;20135;-17
2023/12/25 02:25:29;;;;;;;8.18;1.98;;;10.00;99.90;;;;;;5055702;28;20055;-17
2023/12/25 02:27:55;;;;;;;9.43;1.73;;;10.00;99.90;;;;;;5055869;28;20053;-17
2023/12/25 02:30:20;;;;;;;10.25;1.67;;;10.10;99.90;;;;;;5055051;28;20479;-17
2023/12/25 02:32:46;;;;;;;12.45;2.45;;;10.00;99.90;;;;;;5055877;28;20518;-17
2023/12/25 02:35:12;;;;;;;10.55;2.42;;;10.10;99.90;;;;;;5054101;28;20536;-17
2023/12/25 02:37:38;;;;;;;9.93;2.28;;;10.00;99.90;;;;;;5053832;28;20045;-17
2023/12/25 02:40:06;;;;;;;10.85;2.08;;;10.00;99.90;;;;;;5054906;28;20041;-17
2023/12/25 02:42:32;;;;;;;11.68;1.80;;;10.00;99.90;;;;;;5054742;28;20568;-17
2023/12/25 02:44:57;;;;;;;8.30;1.80;;;10.00;99.90;;;;;;5053623;28;20040;-18
2023/12/25 02:47:23;;;;;;;17.73;2.20;;;9.90;99.90;;;;;;5054737;28;20045;-17
2023/12/25 02:49:49;;;;;;;8.38;1.63;;;9.80;99.90;;;;;;5054747;28;20052;-18
2023/12/25 02:52:15;;;;;;;12.32;1.83;;;9.80;99.90;;;;;;5055506;28;20101;-18
2023/12/25 02:54:41;;;;;;;9.48;2.25;;;9.80;99.90;;;;;;5054645;28;20044;-18
2023/12/25 02:57:07;;;;;;;11.40;1.90;;;9.80;99.90;;;;;;5055406;28;20049;-18
2023/12/25 02:59:32;;;;;;;14.32;2.33;;;9.80;99.90;;;;;;5055136;28;20418;-18
2023/12/25 03:01:58;;;;;;;10.82;1.83;;;9.80;99.90;;;;;;5054489;28;20048;-18
2023/12/25 03:04:24;;;;;;;14.55;2.22;;;9.70;99.90;;;;;;5053514;28;20049;-18
2023/12/25 03:06:50;;;;;;;14.10;1.77;;;9.80;99.90;;;;;;5054399;28;20048;-18
2023/12/25 03:09:16;;;;;;;18.90;3.03;;;9.80;99.90;;;;;;5053405;28;20045;-18
2023/12/25 03:11:43;;;;;;;13.07;2.10;;;9.80;99.90;;;;;;5053324;28;20053;-18
2023/12/25 03:14:09;;;;;;;9.55;1.90;;;9.80;99.90;;;;;;5036428;28;20045;-18
2023/12/25 03:16:35;;;;;;;14.57;2.53;;;9.80;99.90;;;;;;5053095;28;20438;-18
2023/12/25 03:19:00;;;;;;;15.35;3.10;;;9.70;99.90;;;;;;5036747;28;20040;-18
2023/12/25 03:21:26;;;;;;;16.90;2.75;;;9.90;99.90;;;;;;5054115;28;20049;-18
2023/12/25 03:23:52;;;;;;;13.07;2.25;;;10.00;99.90;;;;;;5054154;28;20045;-18
2023/12/25 03:26:18;;;;;;;12.80;2.40;;;9.90;99.90;;;;;;5054273;28;20077;-18
2023/12/25 03:28:44;;;;;;;11.65;2.90;;;9.80;99.90;;;;;;5053858;28;20132;-18
2023/12/25 03:31:10;;;;;;;7.75;1.52;;;9.80;99.90;;;;;;5054021;28;20091;-18
2023/12/25 03:33:36;;;;;;;9.02;2.67;;;9.80;99.90;;;;;;5036130;28;20041;-18
2023/12/25 03:36:03;;;;;;;16.27;2.72;;;9.90;99.90;;;;;;5053900;28;20106;-18
2023/12/25 03:38:29;;;;;;;26.10;2.38;;;9.70;99.90;;;;;;5053855;28;20049;-18
2023/12/25 03:40:54;;;;;;;10.13;2.00;;;9.70;99.90;;;;;;5052905;28;20559;-18
2023/12/25 03:43:20;;;;;;;13.65;2.22;;;9.70;99.90;;;;;;5052655;28;20056;-18
2023/12/25 03:45:46;;;;;;;10.88;2.08;;;9.60;99.90;;;;;;5052624;28;20384;-18
2023/12/25 03:48:12;;;;;;;14.10;2.38;;;9.70;99.90;;;;;;5052515;28;20044;-18
2023/12/25 03:50:38;;;;;;;13.77;2.13;;;9.70;99.90;;;;;;5053961;28;20468;-18
2023/12/25 03:53:03;;;;;;;12.02;1.73;;;9.70;99.90;;;;;;5054505;28;20051;-18
2023/12/25 03:55:29;;;;;;;11.77;2.15;;;9.80;99.90;;;;;;5052473;28;20045;-18
2023/12/25 03:57:55;;;;;;;10.48;2.15;;;9.70;99.90;;;;;;5053891;28;20041;-18
2023/12/25 04:00:21;;;;;;;9.98;2.30;;;9.80;99.90;;;;;;5054413;28;20049;-18
2023/12/25 04:02:46;;;;;;;9.25;1.73;;;9.80;99.90;;;;;;5053546;28;20391;-18
2023/12/25 04:05:12;;;;;;;17.15;2.65;;;9.90;99.90;;;;;;5053599;28;20128;-18
2023/12/25 04:07:38;;;;;;;9.88;1.60;;;9.80;99.90;;;;;;5054241;28;20468;-18
2023/12/25 04:10:05;;;;;;;11.27;1.88;;;9.80;99.90;;;;;;5053528;28;20045;-18
2023/12/25 04:12:31;;;;;;;10.02;2.30;;;9.80;99.90;;;;;;5052584;28;20049;-18
2023/12/25 04:14:57;;;;;;;17.90;2.30;;;9.90;99.90;;;;;;5052321;28;20395;-18
2023/12/25 04:17:23;;;;;;;14.93;2.67;;;9.80;99.90;;;;;;5035473;28;20105;-18
2023/12/25 04:19:48;;;;;;;15.93;2.10;;;9.80;99.90;;;;;;5052203;28;20040;-18
2023/12/25 04:22:14;;;;;;;13.55;2.38;;;9.70;99.90;;;;;;5052210;28;20098;-18
2023/12/25 04:24:40;;;;;;;10.45;1.95;;;9.70;99.90;;;;;;5052383;28;20044;-18
2023/12/25 04:27:06;;;;;;;10.70;2.00;;;9.80;99.90;;;;;;5035382;28;20053;-18
2023/12/25 04:29:31;;;;;;;10.98;1.92;;;9.80;99.90;;;;;;5052037;28;20099;-18
2023/12/25 04:31:57;;;;;;;11.48;1.92;;;9.80;99.90;;;;;;5035481;28;20049;-18
2023/12/25 04:34:23;;;;;;;11.25;2.58;;;9.80;99.90;;;;;;5053573;28;20131;-18
2023/12/25 04:36:49;;;;;;;15.77;2.50;;;9.80;99.90;;;;;;5051998;28;20486;-18
2023/12/25 04:39:15;;;;;;;14.07;2.50;;;9.80;99.90;;;;;;5035466;28;20397;-18
2023/12/25 04:41:40;;;;;;;12.32;2.45;;;9.70;99.90;;;;;;5053206;28;20132;-18
2023/12/25 04:44:07;;;;;;;11.07;1.73;;;9.80;99.90;;;;;;5052883;28;20060;-18
2023/12/25 04:46:35;;;;;;;10.75;2.10;;;9.80;99.90;;;;;;5051992;28;20084;-18
2023/12/25 04:49:01;;;;;;;6.03;1.52;;;9.70;99.90;;;;;;5053362;28;20090;-18
2023/12/25 04:51:27;;;;;;;12.63;2.20;;;9.70;99.90;;;;;;5053153;28;20049;-18
2023/12/25 04:53:52;;;;;;;12.23;2.13;;;9.70;99.90;;;;;;5053128;28;20041;-18
2023/12/25 04:56:18;;;;;;;13.02;1.75;;;9.70;99.90;;;;;;5035547;28;20059;-18
2023/12/25 04:58:44;;;;;;;11.43;1.77;;;9.70;99.90;;;;;;5054434;28;20076;-18
2023/12/25 05:01:10;;;;;;;10.15;2.25;;;9.70;99.90;;;;;;5057376;28;20048;-18
2023/12/25 05:03:37;;;;;;;10.70;2.03;;;9.60;99.90;;;;;;5057571;28;20049;-18
2023/12/25 05:06:03;;;;;;;6.68;1.90;;;9.60;99.90;;;;;;5055844;28;20124;-18
2023/12/25 05:08:28;;;;;;;10.40;1.80;;;9.60;99.90;;;;;;5056660;28;20243;-18
2023/12/25 05:10:54;;;;;;;16.10;2.40;;;9.60;99.90;;;;;;5056222;28;20063;-18
2023/12/25 05:13:20;;;;;;;11.65;2.25;;;9.40;99.90;;;;;;5055387;28;20487;-18
2023/12/25 05:15:46;;;;;;;14.02;1.60;;;9.60;99.90;;;;;;5039292;28;20140;-18
2023/12/25 05:18:12;;;;;;;13.43;2.13;;;9.50;99.90;;;;;;5055800;28;20098;-18
2023/12/25 05:20:38;;;;;;;12.45;1.98;;;9.50;99.90;;;;;;5056108;28;20475;-18
2023/12/25 05:23:04;;;;;;;11.10;2.00;;;9.40;99.90;;;;;;5039389;28;20048;-18
2023/12/25 05:25:30;;;;;;;10.88;1.83;;;9.50;99.90;;;;;;5056522;28;20133;-18
2023/12/25 05:27:56;;;;;;;11.20;1.70;;;9.40;99.90;;;;;;5056232;28;20053;-18
2023/12/25 05:30:22;;;;;;;13.70;3.17;;;9.40;99.90;;;;;;5056193;28;20398;-18
2023/12/25 05:32:48;;;;;;;18.65;2.28;;;9.40;99.90;;;;;;5056194;28;20111;-18
2023/12/25 05:35:14;;;;;;;11.05;2.10;;;9.40;99.90;;;;;;5056165;28;20067;-18
2023/12/25 05:37:40;;;;;;;11.80;2.88;;;9.40;99.90;;;;;;5056204;28;20040;-18
2023/12/25 05:40:06;;;;;;;9.85;1.48;;;9.40;99.90;;;;;;5054861;28;20052;-18
2023/12/25 05:42:32;;;;;;;11.05;1.90;;;9.30;99.90;;;;;;5056827;28;20049;-18
2023/12/25 05:44:58;;;;;;;15.00;2.13;;;9.30;99.90;;;;;;5056262;28;20525;-18
2023/12/25 05:47:24;;;;;;;8.20;1.38;;;9.20;99.90;;;;;;5055001;28;20107;-18
2023/12/25 05:49:51;;;;;;;10.63;1.77;;;9.10;99.90;;;;;;5056387;28;20053;-18
2023/12/25 05:52:17;;;;;;;10.52;2.30;;;9.20;99.90;;;;;;5055871;28;20048;-18
2023/12/25 05:54:43;;;;;;;9.27;1.70;;;9.10;99.90;;;;;;5055495;28;20049;-19
2023/12/25 05:57:09;;;;;;;8.82;2.05;;;9.10;99.90;;;;;;5056305;28;20052;-18
2023/12/25 05:59:37;;;;;;;10.80;1.65;;;9.10;99.90;;;;;;5038324;28;20042;-19
2023/12/25 06:02:03;;;;;;;18.80;2.92;;;9.10;99.90;;;;;;5055111;28;20067;-19
2023/12/25 06:04:29;;;;;;;9.68;1.30;;;9.00;99.90;;;;;;5056144;28;20084;-18
2023/12/25 06:06:55;;;;;;;15.15;2.10;;;9.00;99.90;;;;;;5054441;28;20087;-18
2023/12/25 06:09:21;;;;;;;14.05;2.53;;;8.90;99.90;;;;;;5054250;28;20037;-19
2023/12/25 06:11:47;;;;;;;7.78;1.88;;;8.90;99.90;;;;;;5055465;28;20044;-19
2023/12/25 06:14:13;;;;;;;12.23;1.80;;;8.90;99.90;;;;;;5055470;28;20131;-19
2023/12/25 06:16:39;;;;;;;8.43;1.63;;;9.00;99.90;;;;;;5055391;28;20541;-19
2023/12/25 06:19:05;;;;;;;10.63;1.92;;;8.90;99.90;;;;;;5055343;28;20052;-19
2023/12/25 06:21:31;;;;;;;10.88;1.23;;;8.90;99.90;;;;;;5056126;28;20096;-19
2023/12/25 06:23:58;;;;;;;5.30;1.20;;;8.90;99.90;;;;;;5055251;28;20395;-19
2023/12/25 06:26:24;;;;;;;13.85;3.30;;;8.90;99.90;;;;;;5053816;28;20146;-19
2023/12/25 06:28:49;;;;;;;12.98;2.58;;;9.00;99.90;;;;;;5037367;28;20048;-19
2023/12/25 06:31:15;;;;;;;16.27;3.33;;;8.90;99.90;;;;;;5054828;28;20053;-19
2023/12/25 06:33:41;;;;;;;13.43;2.05;;;8.90;99.90;;;;;;5054388;28;20053;-19
2023/12/25 06:36:07;;;;;;;12.98;2.28;;;8.90;99.90;;;;;;5054718;28;20045;-19
2023/12/25 06:38:33;;;;;;;19.48;2.55;;;9.00;99.90;;;;;;5037143;28;20048;-19
2023/12/25 06:41:01;;;;;;;17.98;2.95;;;9.00;99.90;;;;;;5054918;28;20045;-19
2023/12/25 06:43:27;;;;;;;17.50;2.50;;;9.10;99.90;;;;;;5054929;28;20573;-19
2023/12/25 06:45:52;;;;;;;14.52;2.20;;;9.10;99.90;;;;;;5037108;28;20132;-19
2023/12/25 06:48:18;;;;;;;17.45;2.13;;;9.10;99.90;;;;;;5054714;28;20041;-19
2023/12/25 06:50:44;;;;;;;14.45;2.10;;;9.20;99.90;;;;;;5055296;28;20056;-19
2023/12/25 06:53:10;;;;;;;12.30;2.92;;;9.10;99.90;;;;;;5054701;28;20103;-19
2023/12/25 06:55:36;;;;;;;14.77;3.08;;;9.10;99.90;;;;;;5037114;28;20677;-19
2023/12/25 06:58:02;;;;;;;16.85;3.03;;;9.20;99.90;;;;;;5055676;28;20053;-19
2023/12/25 07:00:27;;;;;;;14.32;1.92;;;9.10;99.90;;;;;;5054833;28;20140;-19
2023/12/25 07:02:53;;;;;;;13.65;1.77;;;9.00;99.90;;;;;;5054540;28;20435;-19
2023/12/25 07:05:19;;;;;;;12.52;2.33;;;8.90;99.90;;;;;;5053615;28;20080;-19
2023/12/25 07:07:45;;;;;;;14.80;2.22;;;9.00;99.90;;;;;;5054868;28;20041;-19
2023/12/25 07:10:11;;;;;;;16.13;2.55;;;9.00;99.90;;;;;;5054309;28;20055;-19
2023/12/25 07:12:38;;;;;;;13.65;2.20;;;8.80;99.90;;;;;;5054272;28;20044;-19
2023/12/25 07:15:04;;;;;;;10.68;2.83;;;8.90;99.90;;;;;;5054561;28;20044;-19
2023/12/25 07:17:32;;;;;;;12.18;2.42;;;8.90;99.90;;;;;;5053237;28;20047;-19
2023/12/25 07:19:58;;;;;;;16.20;2.90;;;8.90;99.90;;;;;;5053893;28;20082;-19
2023/12/25 07:22:24;;;;;;;14.07;2.03;;;8.90;99.90;;;;;;5054028;28;20045;-19
2023/12/25 07:24:50;;;;;;;20.05;3.63;;;9.00;99.90;;;;;;5052976;28;20056;-19
2023/12/25 07:27:16;;;;;;;19.35;3.08;;;8.90;99.90;;;;;;5054056;28;20099;-19
2023/12/25 07:29:42;;;;;;;14.40;2.63;;;8.90;99.90;;;;;;5036055;28;20084;-19
2023/12/25 07:32:08;;;;;;;9.30;1.73;;;8.90;99.90;;;;;;5053935;28;20048;-19
2023/12/25 07:34:35;;;;;;;10.43;1.90;;;8.90;99.90;;;;;;5053602;28;20468;-19
2023/12/25 07:37:02;;;;;;;10.93;2.92;;;8.90;99.90;;;;;;5053883;28;20056;-19
2023/12/25 07:39:27;;;;;;;7.97;1.05;;;8.80;99.90;;;;;;5053906;28;20048;-19
2023/12/25 07:41:55;;;;;;;16.63;2.33;;;8.70;99.90;;;;;;5054641;28;20049;-19
2023/12/25 07:44:22;;;;;;;15.70;2.25;;;8.70;99.90;;;;;;5054646;28;20379;-19
2023/12/25 07:46:47;;;;;;;16.25;2.83;;;8.80;99.90;;;;;;5054054;28;20072;-19
2023/12/25 07:49:13;;;;;;;12.05;2.33;;;8.80;99.90;;;;;;5053693;28;20479;-19
2023/12/25 07:51:39;;;;;;;15.40;2.20;;;8.80;99.90;;;;;;5053588;28;20077;-19
2023/12/25 07:54:05;;;;;;;13.23;2.65;;;8.80;99.90;;;;;;5020267;28;20041;-19
2023/12/25 07:56:31;;;;;;;11.93;1.75;;;8.70;99.90;;;;;;5052580;28;20049;-19
2023/12/25 07:58:57;;;;;;;8.45;1.58;;;8.60;99.90;;;;;;5054151;28;20408;-19
2023/12/25 08:01:23;;;;;;;13.25;2.17;;;8.40;99.90;;;;;;5053451;28;20045;-19
2023/12/25 08:03:52;;;;;;;13.27;1.50;;;8.40;99.90;;;;;;5053381;28;20075;-19
2023/12/25 08:06:18;;;;;;;8.05;1.52;;;8.30;99.90;;;;;;5053339;28;20045;-19
2023/12/25 08:08:48;;;;;;;11.20;1.50;;;8.20;99.90;;;;;;5052011;28;20079;-20
2023/12/25 08:11:17;;;;;;;10.13;1.73;;;8.20;99.90;;;;;;5036066;28;20045;-20
2023/12/25 08:13:43;;;;;;;8.75;1.40;;;8.30;99.90;;;;;;5052155;28;20513;-20
2023/12/25 08:16:08;;;;;;;11.98;2.08;;;8.20;99.90;;;;;;5019074;28;20076;-20
2023/12/25 08:18:34;;;;;;;13.73;1.55;;;8.10;99.90;;;;;;5052352;28;20498;-20
2023/12/25 08:21:00;;;;;;;6.45;1.50;;;8.10;99.90;;;;;;5051998;28;20045;-19
2023/12/25 08:23:29;;;;;;;7.13;1.80;;;8.10;99.90;;;;;;5053119;28;20502;-20
2023/12/25 08:25:54;;;;;;;11.40;1.20;;;7.90;99.90;;;;;;5051853;28;20088;-20
2023/12/25 08:28:20;;;;;;;13.13;1.77;;;7.90;99.90;;;;;;5051960;28;20103;-20
2023/12/25 08:30:46;;;;;;;5.63;1.45;;;7.80;99.90;;;;;;5051912;28;20055;-20
2023/12/25 08:33:12;;;;;;;16.65;1.83;;;7.80;99.90;;;;;;5055200;28;20043;-20
2023/12/25 08:35:37;;;;;;;11.73;1.83;;;7.70;99.90;;;;;;5055945;28;20517;-20
2023/12/25 08:38:03;;;;;;;8.13;1.38;;;7.70;99.90;;;;;;5055957;28;20399;-20
2023/12/25 08:40:29;;;;;;;9.13;1.17;;;7.60;99.90;;;;;;5057044;28;20049;-20
2023/12/25 08:42:55;;;;;;;6.78;0.90;;;7.50;99.90;;;;;;5055834;28;20446;-20
2023/12/25 08:45:21;;;;;;;7.85;1.92;;;7.50;99.90;;;;;;5055691;28;20106;-20
2023/12/25 08:47:51;;;;;;;8.98;1.85;;;7.40;99.90;;;;;;5022553;28;20045;-20
2023/12/25 08:50:17;;;;;;;11.93;1.55;;;7.50;99.90;;;;;;5056864;28;20045;-20
2023/12/25 08:52:43;;;;;;;8.65;1.25;;;7.50;99.90;;;;;;5057272;28;20041;-20
2023/12/25 08:55:10;;;;;;;10.90;1.35;;;7.50;99.90;;;;;;5056499;28;20381;-20
2023/12/25 08:57:36;;;;;;;13.20;1.65;;;7.60;99.90;;;;;;5056696;28;20045;-19
2023/12/25 09:00:05;;;;;;;11.52;1.38;;;7.60;99.90;;;;;;5056452;28;20476;-20
2023/12/25 09:02:31;;;;;;;8.80;1.50;;;7.50;99.90;;;;;;5056563;28;20048;-20
2023/12/25 09:04:57;;;;;;;10.65;1.45;;;7.50;99.90;;;;;;5055432;28;20475;-20
2023/12/25 09:07:23;;;;;;;6.90;2.05;;;7.50;99.90;;;;;;5038595;28;20041;-20
2023/12/25 09:09:49;;;;;;;16.65;1.48;;;7.50;99.90;;;;;;5056381;28;20052;-20
2023/12/25 09:12:15;;;;;;;10.20;1.35;;;7.60;99.90;;;;;;5056382;28;20043;-20
2023/12/25 09:14:41;;;;;;;12.88;1.67;;;7.60;99.90;;;;;;5055186;28;20049;-20
2023/12/25 09:17:07;;;;;;;9.63;1.30;;;7.60;99.90;;;;;;5056365;28;20052;-20
2023/12/25 09:19:33;;;;;;;8.38;1.70;;;7.60;99.90;;;;;;5056590;28;20047;-20
2023/12/25 09:21:59;;;;;;;9.90;1.67;;;7.70;99.90;;;;;;5055985;28;20407;-20
2023/12/25 09:24:25;;;;;;;12.82;1.70;;;7.70;99.90;;;;;;5054733;28;20052;-20
2023/12/25 09:26:53;;;;;;;14.30;2.25;;;7.70;99.90;;;;;;5054560;28;20137;-20
2023/12/25 09:29:19;;;;;;;9.45;1.42;;;7.80;99.90;;;;;;5054771;28;20521;-20
2023/12/25 09:31:44;;;;;;;10.50;1.58;;;7.80;99.90;;;;;;5056067;28;20045;-20
2023/12/25 09:34:10;;;;;;;4.32;0.93;;;7.90;99.90;;;;;;5055949;28;20059;-20
2023/12/25 09:36:36;;;;;;;12.35;1.50;;;8.00;99.90;;;;;;5054846;28;20061;-20
2023/12/25 09:39:02;;;;;;;7.30;1.10;;;8.00;99.90;;;;;;5038573;28;20045;-20
2023/12/25 09:41:32;;;;;;;10.52;1.50;;;8.00;99.90;;;;;;5054642;28;20070;-20
2023/12/25 09:43:59;;;;;;;10.32;1.92;;;8.00;99.90;;;;;;5055444;28;20084;-20
2023/12/25 09:46:25;;;;;;;11.95;1.60;;;7.90;99.90;;;;;;5055856;28;20049;-20
2023/12/25 09:48:53;;;;;;;5.47;0.95;;;7.90;99.90;;;;;;5037995;28;20045;-20
2023/12/25 09:51:19;;;;;;;6.75;1.00;;;7.90;99.90;;;;;;5021597;28;20045;-20
2023/12/25 09:53:45;;;;;;;8.05;1.52;;;7.80;99.90;;;;;;5055661;28;20059;-20
2023/12/25 09:56:14;;;;;;;11.32;1.80;;;7.90;99.90;;;;;;5054429;28;20049;-20
2023/12/25 09:58:42;;;;;;;7.75;2.40;;;7.80;99.90;;;;;;5056171;28;20059;-20
2023/12/25 10:01:09;;;;;;;9.50;2.10;;;7.90;99.90;;;;;;5037839;28;20135;-20
2023/12/25 10:03:37;;;;;;;10.48;1.40;;;7.90;99.90;;;;;;5055552;28;20090;-20
2023/12/25 10:06:02;;;;;;;9.32;1.85;;;7.90;99.90;;;;;;5054443;28;20136;-20
2023/12/25 10:08:29;;;;;;;5.55;0.98;;;8.00;99.90;;;;;;5021198;28;20124;-20
2023/12/25 10:10:56;;;;;;;8.70;1.08;;;8.10;99.90;;;;;;5041268;28;20044;-21
2023/12/25 10:13:28;;;;;;;13.68;1.92;;;8.10;99.90;;;;;;5056025;28;20114;-21
2023/12/25 10:15:54;;;;;;;10.68;1.67;;;8.20;99.90;;;;;;5053402;28;20055;-21
2023/12/25 10:18:20;;;;;;;8.77;1.48;;;8.30;99.90;;;;;;5053118;28;20037;-21
2023/12/25 10:20:59;;;;;;;7.70;1.45;;;8.40;99.90;;;;;;5035371;28;20584;-21
2023/12/25 10:23:29;;;;;;;7.15;1.63;;;8.40;99.90;;;;;;5051581;28;20037;-21
2023/12/25 10:26:01;;;;;;;17.50;2.88;;;8.40;99.90;;;;;;5053323;28;20512;-21
2023/12/25 10:28:28;;;;;;;14.07;1.83;;;8.40;99.90;;;;;;5052045;28;20053;-21
2023/12/25 10:31:02;;;;;;;10.55;1.15;;;8.40;99.90;;;;;;5020353;28;20052;-21
2023/12/25 10:33:29;;;;;;;8.38;1.33;;;8.40;99.90;;;;;;5054856;28;20525;-21
2023/12/25 10:36:09;;;;;;;12.20;2.10;;;8.50;99.90;;;;;;5053675;28;20119;-21
2023/12/25 10:38:42;;;;;;;16.27;2.08;;;8.50;99.90;;;;;;5053855;28;20053;-21
2023/12/25 10:41:22;;;;;;;11.32;1.92;;;8.50;99.90;;;;;;5053714;28;20386;-21
2023/12/25 10:43:52;;;;;;;13.13;2.33;;;8.60;99.90;;;;;;5053457;28;20534;-21
2023/12/25 10:46:26;;;;;;;16.42;1.52;;;8.60;99.90;;;;;;5055184;28;20059;-21
2023/12/25 10:48:55;;;;;;;20.48;3.05;;;8.70;99.90;;;;;;5054739;28;20467;-21
2023/12/25 10:51:33;;;;;;;9.95;1.50;;;8.70;99.90;;;;;;5036401;28;20110;-21
2023/12/25 10:54:04;;;;;;;13.73;1.73;;;8.70;99.90;;;;;;5020734;28;20556;-21
2023/12/25 10:56:43;;;;;;;17.25;2.80;;;8.70;99.90;;;;;;5053265;28;20463;-21
2023/12/25 10:59:22;;;;;;;10.75;1.83;;;8.80;99.90;;;;;;5053169;28;20041;-21
2023/12/25 11:01:49;;;;;;;12.25;1.48;;;8.90;99.90;;;;;;5037936;28;20095;-21
2023/12/25 11:04:15;;;;;;;9.73;1.80;;;9.00;99.90;;;;;;5053484;28;20426;-21
2023/12/25 11:06:45;;;;;;;8.65;2.22;;;9.00;99.90;;;;;;5054214;28;20041;-21
2023/12/25 11:09:11;;;;;;;10.00;1.50;;;9.00;99.90;;;;;;5053752;28;20061;-21
2023/12/25 11:11:39;;;;;;;10.15;2.20;;;9.00;99.90;;;;;;5054208;28;20041;-21
2023/12/25 11:14:07;;;;;;;16.45;1.55;;;9.00;99.90;;;;;;5054096;28;20076;-21
2023/12/25 11:16:34;;;;;;;15.00;2.28;;;9.00;99.90;;;;;;5054046;28;20044;-21
2023/12/25 11:19:01;;;;;;;17.45;2.67;;;9.00;99.90;;;;;;5053411;28;20045;-21
2023/12/25 11:21:33;;;;;;;17.23;2.08;;;9.00;99.90;;;;;;5054530;28;20406;-21
2023/12/25 11:24:00;;;;;;;11.35;1.50;;;9.10;99.90;;;;;;5053082;28;20053;-21
2023/12/25 11:26:30;;;;;;;13.10;2.40;;;9.10;99.90;;;;;;5054787;28;20064;-21
2023/12/25 11:29:06;;;;;;;18.38;3.15;;;9.10;99.90;;;;;;5053807;28;20067;-21
2023/12/25 11:31:42;;;;;;;12.55;2.13;;;9.20;99.90;;;;;;5052715;28;20507;-21
2023/12/25 11:34:19;;;;;;;17.90;2.60;;;9.10;99.90;;;;;;5035995;28;20056;-21
2023/12/25 11:36:45;;;;;;;14.02;3.13;;;9.10;99.90;;;;;;5053825;28;20049;-21
2023/12/25 11:39:12;;;;;;;13.82;1.98;;;9.10;99.90;;;;;;5052610;28;20179;-21
2023/12/25 11:41:37;;;;;;;11.77;2.13;;;9.00;99.90;;;;;;5052408;28;20045;-21
2023/12/25 11:44:08;;;;;;;16.10;2.42;;;9.00;99.90;;;;;;5053671;28;20049;-21
2023/12/25 11:46:43;;;;;;;16.13;3.28;;;9.00;99.90;;;;;;5054017;28;20041;-21
2023/12/25 11:49:09;;;;;;;15.07;2.83;;;9.00;99.90;;;;;;5035495;28;20047;-21
2023/12/25 11:51:45;;;;;;;18.00;3.05;;;9.00;99.90;;;;;;5036147;28;20049;-21
2023/12/25 11:54:11;;;;;;;21.45;2.63;;;8.90;99.90;;;;;;5052856;28;20072;-21
2023/12/25 11:56:38;;;;;;;19.73;2.47;;;8.90;99.90;;;;;;5052338;28;20483;-21
2023/12/25 11:59:05;;;;;;;15.45;2.78;;;8.90;99.90;;;;;;5053455;28;20106;-21
2023/12/25 12:01:31;;;;;;;15.35;2.17;;;8.90;99.90;;;;;;5053418;28;20041;-21
2023/12/25 12:03:57;;;;;;;17.90;3.17;;;8.90;99.90;;;;;;5052140;28;20059;-21
2023/12/25 12:06:23;;;;;;;19.60;2.35;;;8.90;99.90;;;;;;5053273;28;20127;-21
2023/12/25 12:08:49;;;;;;;20.10;2.92;;;9.00;99.90;;;;;;5052916;28;20071;-21
2023/12/25 12:11:15;;;;;;;17.75;1.92;;;9.10;99.90;;;;;;5053421;28;20048;-21
2023/12/25 12:13:42;;;;;;;19.90;2.88;;;9.10;99.90;;;;;;5053294;28;20483;-21
2023/12/25 12:16:08;;;;;;;16.17;2.17;;;9.20;99.90;;;;;;5053228;28;20049;-21
2023/12/25 12:18:35;;;;;;;18.95;2.33;;;9.20;99.90;;;;;;5053124;28;20049;-21
2023/12/25 12:21:01;;;;;;;22.83;3.35;;;9.10;99.90;;;;;;5018706;28;20095;-22
2023/12/25 12:23:28;;;;;;;14.10;2.45;;;9.10;99.90;;;;;;5052004;28;20052;-21
2023/12/25 12:25:54;;;;;;;14.30;2.53;;;9.10;99.90;;;;;;5051527;28;20088;-22
2023/12/25 12:28:20;;;;;;;18.35;4.30;;;9.10;99.90;;;;;;5051655;28;20089;-21
2023/12/25 12:30:46;;;;;;;21.05;3.08;;;9.10;99.90;;;;;;5053090;28;20088;-21
2023/12/25 12:33:16;;;;;;;19.60;2.90;;;9.00;99.90;;;;;;5053475;28;20494;-21
2023/12/25 12:35:42;;;;;;;27.63;2.67;;;9.00;99.90;;;;;;5052097;28;20167;-22
2023/12/25 12:38:12;;;;;;;21.88;3.60;;;9.00;99.90;;;;;;5051928;28;20064;-21
2023/12/25 12:40:39;;;;;;;10.40;1.88;;;9.00;99.90;;;;;;5053409;28;20053;-21
2023/12/25 12:43:05;;;;;;;22.08;2.65;;;9.00;99.90;;;;;;5052399;28;20045;-21
2023/12/25 12:45:30;;;;;;;14.32;2.88;;;8.80;99.90;;;;;;5051797;28;20060;-21